Time;durP1;ratioP1;P1;durP2;ratioP2;P2;SDS_P1;SDS_P2;PMS_P1;PMS_P2;Temp;Humidity;BMP_temperature;BMP_pressure;BME280_temperature;BME280_humidity;BME280_pressure;Samples;Min_cycle;Max_cycle;Signal;HPM_P1;HPM_P2
2022/09/15 00:02:12;;;;;;;4.63;2.72;;;21.80;99.90;;;;;;5139103;27;20474;-54
2022/09/15 00:04:38;;;;;;;6.93;3.10;;;21.90;99.90;;;;;;5112851;27;20039;-55
2022/09/15 00:07:04;;;;;;;6.85;2.85;;;21.80;99.90;;;;;;5146809;27;20069;-51
2022/09/15 00:09:30;;;;;;;10.10;3.17;;;21.90;99.90;;;;;;5088358;27;20039;-55
2022/09/15 00:11:55;;;;;;;5.97;2.83;;;21.80;99.90;;;;;;5105983;27;20049;-60
2022/09/15 00:14:21;;;;;;;6.22;2.92;;;21.80;99.90;;;;;;5138306;27;20066;-58
2022/09/15 00:16:47;;;;;;;8.60;3.10;;;21.70;99.90;;;;;;5147699;27;20493;-58
2022/09/15 00:19:13;;;;;;;7.18;2.97;;;21.70;99.90;;;;;;5095993;27;20393;-58
2022/09/15 00:21:40;;;;;;;7.00;2.50;;;21.70;99.90;;;;;;5108577;27;20046;-53
2022/09/15 00:24:07;;;;;;;9.05;3.15;;;21.70;99.90;;;;;;5087942;28;20488;-54
2022/09/15 00:26:33;;;;;;;6.00;2.80;;;21.60;99.90;;;;;;5083422;28;20052;-57
2022/09/15 00:29:00;;;;;;;5.60;2.70;;;21.60;99.90;;;;;;5084912;28;20036;-58
2022/09/15 00:31:27;;;;;;;8.93;3.65;;;21.70;99.90;;;;;;5057496;28;20028;-58
2022/09/15 00:33:55;;;;;;;7.22;2.63;;;21.70;99.90;;;;;;5083785;28;20033;-56
2022/09/15 00:36:23;;;;;;;9.35;3.60;;;21.80;99.90;;;;;;5089922;28;20046;-58
2022/09/15 00:38:49;;;;;;;7.90;2.63;;;21.80;99.90;;;;;;5085228;28;20077;-57
2022/09/15 00:41:17;;;;;;;6.55;2.58;;;21.80;99.90;;;;;;5082621;28;20028;-56
2022/09/15 00:43:51;;;;;;;4.07;2.42;;;21.90;99.90;;;;;;5086941;28;20036;-57
2022/09/15 00:46:20;;;;;;;12.90;2.88;;;21.80;99.90;;;;;;5055691;28;20377;-55
2022/09/15 00:49:06;;;;;;;3.35;2.08;;;21.80;99.90;;;;;;5084758;28;20447;-56
2022/09/15 00:51:37;;;;;;;6.78;2.70;;;21.70;99.90;;;;;;5084775;28;20518;-56
2022/09/15 00:54:08;;;;;;;4.65;2.72;;;21.60;99.90;;;;;;5093861;27;20031;-53
2022/09/15 00:56:36;;;;;;;6.55;2.78;;;21.60;99.90;;;;;;5145934;27;20070;-57
2022/09/15 00:59:06;;;;;;;5.88;2.60;;;21.60;99.90;;;;;;5150278;27;20019;-56
2022/09/15 01:01:32;;;;;;;6.53;2.70;;;21.80;99.90;;;;;;5150090;27;20019;-55
2022/09/15 01:03:58;;;;;;;6.35;3.10;;;21.80;99.90;;;;;;5149493;27;20351;-56
2022/09/15 01:06:42;;;;;;;5.78;2.75;;;21.90;99.90;;;;;;5144236;27;20031;-57
2022/09/15 01:09:22;;;;;;;7.30;2.83;;;22.00;99.90;;;;;;5152669;27;20023;-54
2022/09/15 01:11:48;;;;;;;5.70;2.85;;;22.00;99.90;;;;;;5148788;27;20015;-56
2022/09/15 01:14:14;;;;;;;6.00;2.35;;;22.00;99.90;;;;;;5147055;27;20043;-56
2022/09/15 01:17:10;;;;;;;4.50;2.15;;;22.00;99.90;;;;;;5149629;27;20079;-57
2022/09/15 01:19:58;;;;;;;6.18;2.50;;;22.00;99.90;;;;;;5111878;27;20035;-57
2022/09/15 01:22:42;;;;;;;7.28;2.63;;;22.00;99.90;;;;;;5137589;27;20042;-56
2022/09/15 01:25:47;;;;;;;8.85;2.42;;;22.00;99.90;;;;;;5142055;27;20019;-56
2022/09/15 01:29:03;;;;;;;5.10;2.00;;;22.00;99.90;;;;;;5142400;27;20018;-57
2022/09/15 01:34:56;;;;;;;8.02;2.00;;;22.10;99.90;;;;;;5007328;28;20046;-51
2022/09/15 01:37:33;;;;;;;5.65;2.10;;;22.20;99.90;;;;;;5011460;28;20037;-57
2022/09/15 01:40:00;;;;;;;5.80;2.10;;;22.30;99.90;;;;;;5012279;28;20516;-54
2022/09/15 01:42:28;;;;;;;4.65;1.58;;;22.40;99.90;;;;;;5006493;28;20026;-56
2022/09/15 01:45:00;;;;;;;4.72;1.92;;;22.50;99.90;;;;;;5010035;28;20030;-55
2022/09/15 01:47:28;;;;;;;2.30;1.23;;;22.50;99.90;;;;;;5016517;28;20042;-54
2022/09/15 01:50:17;;;;;;;5.95;1.55;;;22.60;99.90;;;;;;5009068;28;20096;-58
2022/09/15 01:52:47;;;;;;;2.63;1.58;;;22.80;99.90;;;;;;5013564;28;20058;-57
2022/09/15 01:55:21;;;;;;;3.78;1.52;;;22.90;99.90;;;;;;5012466;28;20080;-52
2022/09/15 01:57:48;;;;;;;5.03;1.50;;;23.00;99.90;;;;;;5009687;28;20072;-57
2022/09/15 02:00:14;;;;;;;1.70;1.50;;;23.10;99.90;;;;;;5012866;28;20174;-57
2022/09/15 02:02:53;;;;;;;3.30;1.50;;;23.10;99.90;;;;;;5013419;28;20505;-55
2022/09/15 02:05:29;;;;;;;4.10;1.30;;;23.20;99.90;;;;;;5010775;28;20042;-53
2022/09/15 02:08:27;;;;;;;4.07;1.55;;;23.30;99.90;;;;;;5060573;28;20040;-55
2022/09/15 02:11:11;;;;;;;3.63;1.45;;;23.30;99.90;;;;;;5107198;27;20030;-56
2022/09/15 02:13:49;;;;;;;3.30;1.42;;;23.40;99.90;;;;;;5144490;27;20095;-57
2022/09/15 02:16:20;;;;;;;5.20;1.58;;;23.40;99.90;;;;;;5140002;27;20027;-57
2022/09/15 02:18:55;;;;;;;6.17;1.50;;;23.40;99.90;;;;;;5142798;27;20403;-56
2022/09/15 02:21:28;;;;;;;3.13;1.48;;;23.40;99.90;;;;;;5146284;27;20030;-58
2022/09/15 02:24:02;;;;;;;6.53;1.80;;;23.40;99.90;;;;;;5140887;27;20378;-54
2022/09/15 02:26:30;;;;;;;7.40;1.88;;;23.40;99.90;;;;;;5144188;27;20421;-59
2022/09/15 02:28:59;;;;;;;5.80;1.52;;;23.40;99.90;;;;;;5147125;27;20033;-55
2022/09/15 02:31:26;;;;;;;3.85;1.67;;;23.40;99.90;;;;;;5124074;27;20027;-56
2022/09/15 02:34:15;;;;;;;3.38;1.50;;;23.40;99.90;;;;;;5110414;27;20083;-54
2022/09/15 02:36:43;;;;;;;4.53;1.40;;;23.40;99.90;;;;;;5142391;27;20090;-59
2022/09/15 02:39:13;;;;;;;5.70;2.00;;;23.50;99.90;;;;;;5141966;27;20055;-55
2022/09/15 02:41:39;;;;;;;3.22;1.48;;;23.50;99.90;;;;;;5110075;28;20595;-56
2022/09/15 02:44:07;;;;;;;4.90;1.75;;;23.60;99.90;;;;;;5144268;27;20030;-55
2022/09/15 02:46:33;;;;;;;3.65;1.55;;;23.60;99.90;;;;;;5109212;27;20378;-56
2022/09/15 02:48:59;;;;;;;3.67;1.25;;;23.70;99.90;;;;;;5138129;27;20019;-56
2022/09/15 02:51:24;;;;;;;7.60;1.80;;;23.70;99.90;;;;;;5092966;28;20034;-56
2022/09/15 02:53:51;;;;;;;2.47;1.30;;;23.70;99.90;;;;;;5145260;27;20075;-57
2022/09/15 02:56:17;;;;;;;4.88;1.40;;;23.80;99.90;;;;;;5095615;27;20486;-55
2022/09/15 02:58:43;;;;;;;4.63;1.45;;;23.80;99.90;;;;;;5147572;27;20023;-54
2022/09/15 03:01:14;;;;;;;2.40;1.25;;;23.80;99.90;;;;;;5143295;27;20023;-56
2022/09/15 03:03:41;;;;;;;3.92;1.55;;;23.80;99.90;;;;;;5148446;27;20022;-52
2022/09/15 03:06:16;;;;;;;6.80;1.50;;;23.90;99.90;;;;;;5143523;27;20172;-58
2022/09/15 03:08:52;;;;;;;4.05;1.58;;;23.90;99.90;;;;;;5150476;27;20055;-55
2022/09/15 03:11:19;;;;;;;3.10;1.40;;;23.90;99.90;;;;;;5135034;27;20054;-57
2022/09/15 03:13:47;;;;;;;2.85;1.38;;;23.90;99.90;;;;;;5146624;27;20046;-55
2022/09/15 03:16:15;;;;;;;2.45;1.10;;;24.00;99.90;;;;;;5149443;27;20037;-56
2022/09/15 03:18:41;;;;;;;2.42;1.52;;;24.00;99.90;;;;;;5149414;27;20065;-57
2022/09/15 03:21:10;;;;;;;3.65;1.50;;;24.00;99.90;;;;;;5144925;27;20061;-55
2022/09/15 03:23:36;;;;;;;6.30;1.50;;;24.00;99.90;;;;;;5145133;27;20369;-58
2022/09/15 03:26:03;;;;;;;4.07;1.40;;;24.10;99.90;;;;;;5148345;27;20035;-59
2022/09/15 03:28:29;;;;;;;2.22;1.27;;;24.00;99.90;;;;;;5152171;27;20033;-58
2022/09/15 03:30:55;;;;;;;2.85;1.30;;;24.10;99.90;;;;;;5147335;27;20027;-56
2022/09/15 03:33:22;;;;;;;4.38;1.30;;;24.10;99.90;;;;;;5150242;27;20019;-52
2022/09/15 03:35:49;;;;;;;6.63;1.38;;;24.10;99.90;;;;;;5151747;27;20023;-56
2022/09/15 03:38:16;;;;;;;4.20;1.85;;;24.10;99.90;;;;;;5145705;27;20030;-55
2022/09/15 03:40:42;;;;;;;4.38;1.42;;;24.00;99.90;;;;;;5145368;27;20062;-56
2022/09/15 03:43:09;;;;;;;4.72;1.40;;;24.10;99.90;;;;;;5153833;27;20022;-60
2022/09/15 03:45:36;;;;;;;4.13;1.58;;;24.10;99.90;;;;;;5152194;27;20688;-57
2022/09/15 03:48:05;;;;;;;4.20;1.42;;;24.10;99.90;;;;;;5145965;27;20521;-58
2022/09/15 03:50:32;;;;;;;7.18;1.77;;;24.10;99.90;;;;;;5141535;27;20027;-59
2022/09/15 03:52:59;;;;;;;4.57;1.35;;;24.00;99.90;;;;;;5149703;27;20034;-56
2022/09/15 03:55:26;;;;;;;5.13;2.50;;;24.00;99.90;;;;;;5056641;28;20036;-55
2022/09/15 03:57:52;;;;;;;8.40;1.85;;;24.00;99.90;;;;;;5085941;28;20032;-55
2022/09/15 04:00:18;;;;;;;7.25;1.63;;;24.00;99.90;;;;;;5064989;28;20029;-57
2022/09/15 04:02:44;;;;;;;6.85;1.95;;;24.00;99.90;;;;;;5085366;28;20028;-56
2022/09/15 04:05:12;;;;;;;2.22;1.60;;;23.90;99.90;;;;;;5082455;28;20078;-55
2022/09/15 04:07:39;;;;;;;4.18;1.63;;;23.90;99.90;;;;;;5085104;28;20050;-56
2022/09/15 04:10:06;;;;;;;5.53;1.70;;;23.90;99.90;;;;;;5084896;28;20025;-54
2022/09/15 04:12:33;;;;;;;10.82;2.20;;;23.80;99.90;;;;;;5038996;28;20079;-57
2022/09/15 04:14:59;;;;;;;4.35;1.40;;;23.80;99.90;;;;;;5054322;28;20044;-57
2022/09/15 04:17:26;;;;;;;2.75;1.20;;;23.80;99.90;;;;;;5087183;28;20111;-58
2022/09/15 04:19:52;;;;;;;5.78;1.35;;;23.80;99.90;;;;;;5088800;28;20432;-57
2022/09/15 04:22:18;;;;;;;3.20;1.23;;;23.90;99.90;;;;;;5086525;28;20165;-52
2022/09/15 04:24:44;;;;;;;2.83;1.23;;;24.10;99.90;;;;;;5085380;28;20035;-53
2022/09/15 04:27:10;;;;;;;2.30;1.80;;;24.30;99.90;;;;;;5092141;27;20129;-58
2022/09/15 04:29:36;;;;;;;2.85;1.30;;;24.40;99.90;;;;;;5110123;27;20478;-57
2022/09/15 04:32:02;;;;;;;7.82;1.95;;;24.40;99.90;;;;;;5148535;27;20027;-54
2022/09/15 04:34:27;;;;;;;7.80;1.50;;;24.40;99.90;;;;;;5151272;27;20054;-56
2022/09/15 04:36:53;;;;;;;5.38;1.58;;;24.40;99.90;;;;;;5141929;27;20114;-55
2022/09/15 04:39:19;;;;;;;6.47;1.88;;;24.30;99.90;;;;;;5079322;28;20044;-58
2022/09/15 04:41:45;;;;;;;10.18;1.95;;;24.20;99.90;;;;;;5088256;28;20033;-56
2022/09/15 04:44:10;;;;;;;2.95;1.70;;;24.10;99.90;;;;;;5083416;28;20123;-55
2022/09/15 04:46:36;;;;;;;7.90;1.90;;;24.00;99.90;;;;;;5034034;28;20048;-55
2022/09/15 04:49:02;;;;;;;4.60;1.77;;;24.00;99.90;;;;;;5086079;28;20032;-55
2022/09/15 04:51:28;;;;;;;6.70;2.00;;;24.00;99.90;;;;;;5087155;28;20032;-56
2022/09/15 04:53:54;;;;;;;6.40;1.85;;;24.00;99.90;;;;;;5064573;28;20138;-57
2022/09/15 04:56:22;;;;;;;9.27;3.08;;;24.00;99.90;;;;;;5057368;28;20024;-56
2022/09/15 04:58:53;;;;;;;18.50;3.63;;;24.00;99.90;;;;;;5084521;28;20032;-56
2022/09/15 05:01:22;;;;;;;6.15;2.70;;;24.00;99.90;;;;;;5078418;28;20021;-56
2022/09/15 05:03:49;;;;;;;7.32;2.03;;;24.00;99.90;;;;;;5088957;28;20555;-55
2022/09/15 05:06:18;;;;;;;31.02;8.38;;;24.10;99.90;;;;;;5078436;28;20067;-55
2022/09/15 05:08:48;;;;;;;32.55;8.18;;;24.10;99.90;;;;;;5078019;28;20490;-53
2022/09/15 05:11:15;;;;;;;26.88;8.35;;;24.00;99.90;;;;;;5133528;27;20034;-57
2022/09/15 05:13:40;;;;;;;24.77;7.85;;;24.00;99.90;;;;;;5102986;28;20043;-59
2022/09/15 05:16:16;;;;;;;17.98;8.68;;;24.00;99.90;;;;;;5112320;27;20027;-54
2022/09/15 05:18:44;;;;;;;12.85;6.32;;;23.90;99.90;;;;;;5104750;27;20035;-59
2022/09/15 05:21:12;;;;;;;20.15;5.55;;;23.80;99.90;;;;;;5108219;27;20056;-59
2022/09/15 05:23:38;;;;;;;13.52;4.75;;;23.70;99.90;;;;;;5112179;27;20034;-59
2022/09/15 05:26:07;;;;;;;15.55;4.55;;;23.70;99.90;;;;;;5110949;27;20039;-54
2022/09/15 05:28:35;;;;;;;18.65;4.75;;;23.60;99.90;;;;;;5113485;27;20421;-56
2022/09/15 05:31:01;;;;;;;13.63;4.40;;;23.60;99.90;;;;;;5111659;27;20529;-57
2022/09/15 05:33:27;;;;;;;19.73;6.38;;;23.60;99.90;;;;;;5114154;27;20030;-55
2022/09/15 05:35:55;;;;;;;13.68;4.25;;;23.70;99.90;;;;;;5095731;27;20032;-59
2022/09/15 05:38:22;;;;;;;8.63;3.00;;;23.70;99.90;;;;;;5095030;27;20395;-55
2022/09/15 05:40:48;;;;;;;5.28;2.97;;;23.70;99.90;;;;;;5110396;27;20015;-58
2022/09/15 05:43:15;;;;;;;9.13;3.30;;;23.70;99.90;;;;;;5112508;27;20039;-55
2022/09/15 05:45:41;;;;;;;11.45;2.97;;;23.70;99.90;;;;;;5118710;27;20076;-57
2022/09/15 05:48:08;;;;;;;14.20;3.42;;;23.60;99.90;;;;;;5122618;27;20016;-51
2022/09/15 05:50:34;;;;;;;8.63;3.35;;;23.60;99.90;;;;;;5117570;27;20039;-56
2022/09/15 05:53:00;;;;;;;12.60;3.30;;;23.60;99.90;;;;;;5111833;27;20024;-55
2022/09/15 05:55:27;;;;;;;19.70;9.55;;;23.60;99.90;;;;;;5114490;27;20436;-60
2022/09/15 05:57:53;;;;;;;9.45;2.95;;;23.70;99.90;;;;;;5087165;27;20043;-55
2022/09/15 06:00:19;;;;;;;12.82;4.47;;;23.70;99.90;;;;;;5100110;27;20043;-54
2022/09/15 06:02:44;;;;;;;13.73;3.55;;;23.70;99.90;;;;;;5114309;27;20023;-55
2022/09/15 06:05:10;;;;;;;8.88;4.07;;;23.70;99.90;;;;;;5110251;28;20598;-58
2022/09/15 06:07:36;;;;;;;18.58;7.63;;;23.70;99.90;;;;;;5106675;28;20020;-58
2022/09/15 06:10:03;;;;;;;10.90;4.57;;;23.60;99.90;;;;;;5091846;28;20028;-53
2022/09/15 06:12:29;;;;;;;15.93;4.63;;;23.60;99.90;;;;;;5087843;27;20054;-60
2022/09/15 06:14:55;;;;;;;15.30;4.20;;;23.60;99.90;;;;;;5107598;27;20038;-56
2022/09/15 06:17:22;;;;;;;9.10;3.33;;;23.60;99.90;;;;;;5090019;27;20042;-58
2022/09/15 06:19:49;;;;;;;16.65;3.75;;;23.70;99.90;;;;;;5118841;27;20057;-57
2022/09/15 06:22:14;;;;;;;10.23;3.80;;;23.70;99.90;;;;;;5142178;27;20023;-58
2022/09/15 06:24:40;;;;;;;11.93;4.03;;;23.80;99.90;;;;;;5073004;27;20559;-56
2022/09/15 06:27:06;;;;;;;9.65;4.30;;;23.80;99.90;;;;;;5133044;27;20490;-58
2022/09/15 06:29:32;;;;;;;13.98;4.07;;;23.90;99.90;;;;;;5064980;27;20042;-55
2022/09/15 06:32:01;;;;;;;21.25;5.38;;;24.00;99.90;;;;;;5103170;27;20034;-59
2022/09/15 06:34:28;;;;;;;18.42;5.72;;;24.10;99.90;;;;;;5136857;27;20084;-55
2022/09/15 06:36:54;;;;;;;10.07;5.55;;;24.20;99.90;;;;;;5134776;27;20039;-59
2022/09/15 06:39:21;;;;;;;10.38;4.32;;;24.50;99.90;;;;;;5134128;27;20027;-55
2022/09/15 06:41:46;;;;;;;15.45;4.57;;;24.60;99.90;;;;;;5137199;27;20023;-56
2022/09/15 06:44:12;;;;;;;10.02;3.30;;;24.80;99.90;;;;;;5136220;27;20056;-51
2022/09/15 06:46:38;;;;;;;11.52;3.30;;;24.90;99.90;;;;;;5133418;28;20027;-53
2022/09/15 06:49:03;;;;;;;8.38;3.22;;;25.10;99.90;;;;;;5132530;28;20420;-55
2022/09/15 06:51:34;;;;;;;12.50;3.38;;;25.20;99.90;;;;;;5133738;28;20714;-54
2022/09/15 06:54:01;;;;;;;9.13;2.80;;;25.30;99.90;;;;;;5135682;27;20087;-54
2022/09/15 06:56:28;;;;;;;11.40;2.50;;;;;;;;;;5134550;27;20019;-53
2022/09/15 06:58:57;;;;;;;4.47;2.25;;;25.40;99.90;;;;;;5134159;27;20517;-56
2022/09/15 07:01:26;;;;;;;6.78;2.22;;;25.80;99.90;;;;;;5089417;27;20125;-55
2022/09/15 07:03:53;;;;;;;6.50;2.42;;;25.80;99.90;;;;;;5133347;27;20420;-55
2022/09/15 07:06:20;;;;;;;6.65;2.80;;;25.90;99.90;;;;;;5133980;28;20069;-54
2022/09/15 07:08:46;;;;;;;8.68;2.33;;;26.00;99.90;;;;;;5134492;28;20030;-55
2022/09/15 07:11:13;;;;;;;7.13;2.50;;;26.20;99.90;;;;;;5098226;28;20118;-55
2022/09/15 07:13:39;;;;;;;6.85;1.70;;;26.30;99.90;;;;;;5134044;28;20047;-54
2022/09/15 07:16:09;;;;;;;8.13;2.10;;;26.40;99.90;;;;;;5133929;28;20483;-54
2022/09/15 07:18:35;;;;;;;6.15;2.13;;;26.50;99.90;;;;;;5134114;28;20031;-55
2022/09/15 07:21:02;;;;;;;5.15;2.20;;;;;;;;;;5134053;28;20039;-54
2022/09/15 07:23:28;;;;;;;7.22;2.22;;;26.70;99.90;;;;;;5134233;28;20095;-55
2022/09/15 07:26:05;;;;;;;6.32;2.22;;;27.00;99.90;;;;;;5134006;28;20031;-54
2022/09/15 07:28:32;;;;;;;7.65;2.97;;;26.70;99.90;;;;;;5133854;28;20023;-54
2022/09/15 07:30:57;;;;;;;8.20;2.85;;;26.70;99.90;;;;;;5133978;28;20027;-54
2022/09/15 07:33:23;;;;;;;7.38;2.22;;;26.70;99.90;;;;;;5133740;28;20512;-55
2022/09/15 07:35:49;;;;;;;5.78;2.20;;;26.70;99.90;;;;;;5134072;28;20501;-54
2022/09/15 07:38:15;;;;;;;5.43;2.20;;;26.80;99.90;;;;;;5133838;28;20035;-54
2022/09/15 07:40:41;;;;;;;10.32;2.00;;;26.80;99.90;;;;;;5134019;28;20051;-54
2022/09/15 07:43:06;;;;;;;7.03;2.35;;;26.90;99.90;;;;;;5133860;28;20074;-55
2022/09/15 07:45:34;;;;;;;5.30;2.00;;;26.90;99.90;;;;;;5133627;28;21218;-54
2022/09/15 07:47:59;;;;;;;9.68;2.30;;;27.00;99.90;;;;;;5133845;28;20478;-55
2022/09/15 07:50:25;;;;;;;6.07;1.70;;;27.00;99.90;;;;;;5081133;28;20046;-54
2022/09/15 07:52:55;;;;;;;4.43;1.95;;;26.90;99.90;;;;;;5136867;27;20023;-55
2022/09/15 07:55:20;;;;;;;3.10;1.90;;;26.90;99.90;;;;;;5137672;27;20050;-54
2022/09/15 07:57:46;;;;;;;9.93;2.55;;;26.90;99.90;;;;;;5137567;27;20466;-54
2022/09/15 08:00:14;;;;;;;3.28;1.70;;;26.90;99.90;;;;;;5137391;27;20482;-54
2022/09/15 08:02:39;;;;;;;14.27;2.35;;;26.80;99.90;;;;;;5137293;27;20510;-54
2022/09/15 08:05:05;;;;;;;4.13;2.25;;;26.70;99.90;;;;;;5137229;27;20123;-54
2022/09/15 08:07:31;;;;;;;7.55;2.45;;;26.70;99.90;;;;;;5137332;27;20054;-54
2022/09/15 08:09:57;;;;;;;6.97;2.20;;;26.50;99.90;;;;;;5137368;27;20046;-54
2022/09/15 08:12:23;;;;;;;5.00;2.38;;;26.40;99.90;;;;;;5137432;27;20027;-55
2022/09/15 08:14:48;;;;;;;5.50;2.30;;;26.30;99.90;;;;;;5137244;27;20031;-54
2022/09/15 08:17:14;;;;;;;8.82;2.60;;;26.30;99.90;;;;;;5137011;27;20076;-55
2022/09/15 08:19:40;;;;;;;8.18;3.05;;;26.20;99.90;;;;;;5137074;27;20051;-54
2022/09/15 08:22:06;;;;;;;4.32;1.90;;;26.20;99.90;;;;;;5084491;27;20096;-54
2022/09/15 08:24:31;;;;;;;6.10;2.42;;;26.10;99.90;;;;;;5137457;27;20034;-53
2022/09/15 08:26:57;;;;;;;7.38;2.20;;;26.10;99.90;;;;;;5136673;27;20035;-55
2022/09/15 08:29:23;;;;;;;9.15;2.45;;;26.00;99.90;;;;;;5084119;27;20110;-54
2022/09/15 08:31:48;;;;;;;7.68;2.30;;;25.90;99.90;;;;;;5136727;27;20023;-54
2022/09/15 08:34:15;;;;;;;12.35;2.53;;;25.90;99.90;;;;;;5083767;27;20035;-55
2022/09/15 08:36:41;;;;;;;7.25;2.47;;;25.90;99.90;;;;;;5136998;27;20023;-54
2022/09/15 08:39:07;;;;;;;7.80;2.70;;;25.80;99.90;;;;;;5136808;27;20421;-54
2022/09/15 08:41:43;;;;;;;3.38;2.20;;;25.70;99.90;;;;;;5136883;27;20023;-54
2022/09/15 08:44:44;;;;;;;8.68;2.58;;;25.60;99.90;;;;;;5136454;27;20023;-53
2022/09/15 08:47:10;;;;;;;5.03;2.67;;;25.40;99.90;;;;;;5033175;28;20498;-53
2022/09/15 08:50:06;;;;;;;10.05;2.80;;;25.40;99.90;;;;;;5033068;28;20033;-52
2022/09/15 08:52:49;;;;;;;6.97;2.58;;;25.30;99.90;;;;;;5033015;28;20030;-53
2022/09/15 08:55:33;;;;;;;4.60;2.60;;;25.20;99.90;;;;;;5033392;28;20033;-53
2022/09/15 08:57:59;;;;;;;10.20;2.78;;;25.20;99.90;;;;;;5033232;28;20064;-53
2022/09/15 09:00:25;;;;;;;8.57;3.88;;;25.20;99.90;;;;;;4983972;28;20497;-52
2022/09/15 09:03:19;;;;;;;5.57;2.60;;;25.20;99.90;;;;;;5015539;28;20441;-53
2022/09/15 09:06:02;;;;;;;6.57;2.40;;;25.20;99.90;;;;;;4935731;29;20135;-52
2022/09/15 09:08:50;;;;;;;9.48;3.40;;;25.10;99.90;;;;;;4935663;29;20062;-53
2022/09/15 09:11:54;;;;;;;4.72;2.55;;;25.20;99.90;;;;;;4935537;29;20602;-53
2022/09/15 09:14:26;;;;;;;6.45;2.85;;;25.20;99.90;;;;;;4928752;29;20066;-52
2022/09/15 09:16:51;;;;;;;12.45;4.85;;;25.20;99.90;;;;;;4935533;29;20408;-53
2022/09/15 09:19:31;;;;;;;10.23;4.93;;;25.30;99.90;;;;;;4935453;29;20039;-53
2022/09/15 09:22:04;;;;;;;8.77;3.60;;;25.30;99.90;;;;;;4946273;28;20137;-53
2022/09/15 09:24:43;;;;;;;6.75;2.83;;;25.50;99.90;;;;;;4993280;28;20490;-54
2022/09/15 09:27:13;;;;;;;6.57;2.70;;;25.60;99.90;;;;;;4993471;28;20084;-53
2022/09/15 09:29:43;;;;;;;6.07;2.35;;;25.90;99.90;;;;;;5016010;28;20128;-53
2022/09/15 09:32:24;;;;;;;8.55;2.15;;;26.10;99.90;;;;;;5031786;28;20044;-52
2022/09/15 09:35:14;;;;;;;5.55;2.33;;;26.40;99.90;;;;;;5032212;28;20033;-52
2022/09/15 09:37:40;;;;;;;6.85;2.30;;;26.70;99.90;;;;;;4979895;28;20068;-53
2022/09/15 09:40:06;;;;;;;5.68;2.42;;;26.90;99.90;;;;;;5012293;28;20491;-53
2022/09/15 09:42:36;;;;;;;4.82;2.08;;;27.10;99.90;;;;;;5057599;28;20502;-53
2022/09/15 09:45:04;;;;;;;5.57;2.33;;;;;;;;;;5112522;28;20115;-53
2022/09/15 09:47:33;;;;;;;11.02;3.10;;;;;;;;;;5112279;28;20052;-52
2022/09/15 09:49:59;;;;;;;8.18;2.45;;;27.40;99.90;;;;;;5112383;28;20125;-52
2022/09/15 09:52:51;;;;;;;8.88;2.28;;;29.20;99.90;;;;;;5051546;28;20120;-51
2022/09/15 09:55:17;;;;;;;;;;;;;;;;;;4993133;28;20042;-53
2022/09/15 09:57:43;;;;;;;7.80;2.70;;;;;;;;;;4992489;28;19906;-51
2022/09/15 10:00:31;;;;;;;8.02;2.20;;;29.80;99.90;;;;;;4992423;28;20039;-53
2022/09/15 10:02:58;;;;;;;3.85;1.80;;;;;;;;;;4992420;28;20041;-54
2022/09/15 10:05:24;;;;;;;6.00;1.70;;;;;;;;;;5008385;28;20074;-54
2022/09/15 10:07:50;;;;;;;6.45;2.55;;;30.20;99.90;;;;;;4996959;28;20045;-52
2022/09/15 10:10:31;;;;;;;5.63;1.98;;;30.30;99.90;;;;;;5011906;28;20022;-51
2022/09/15 10:12:58;;;;;;;5.05;1.73;;;30.00;99.90;;;;;;5011822;28;20042;-52
2022/09/15 10:15:27;;;;;;;8.57;2.40;;;29.30;99.90;;;;;;5011681;28;20526;-53
2022/09/15 10:17:54;;;;;;;5.53;2.50;;;29.40;99.90;;;;;;4979348;28;20510;-54
2022/09/15 10:20:48;;;;;;;6.97;2.22;;;29.70;99.90;;;;;;5011735;28;20037;-53
2022/09/15 10:23:14;;;;;;;5.00;1.90;;;;;;;;;;5042468;28;20064;-53
2022/09/15 10:25:40;;;;;;;5.00;2.03;;;31.10;99.90;;;;;;5059592;28;20063;-53
2022/09/15 10:28:09;;;;;;;9.27;2.22;;;;;;;;;;5056831;28;20516;-53
2022/09/15 10:30:38;;;;;;;2.10;1.50;;;;;;;;;;5060085;28;20051;-53
2022/09/15 10:33:29;;;;;;;2.17;1.60;;;32.60;99.90;;;;;;5128316;27;20023;-52
2022/09/15 10:36:01;;;;;;;5.68;2.25;;;;;;;;;;5091179;27;20023;-53
2022/09/15 10:38:47;;;;;;;5.25;2.25;;;32.40;99.70;;;;;;5136380;27;20471;-52
2022/09/15 10:41:20;;;;;;;5.60;1.90;;;32.00;99.50;;;;;;5133755;27;20023;-52
2022/09/15 10:43:56;;;;;;;5.30;2.70;;;31.70;99.90;;;;;;5114326;28;20038;-53
2022/09/15 10:46:49;;;;;;;6.68;2.20;;;31.40;99.90;;;;;;5136579;27;20035;-54
2022/09/15 10:50:09;;;;;;;5.65;2.08;;;30.60;99.90;;;;;;5133921;28;20019;-53
2022/09/15 10:52:52;;;;;;;7.53;2.20;;;30.40;99.90;;;;;;5069381;28;20094;-54
2022/09/15 10:55:24;;;;;;;6.40;2.13;;;;;;;;;;5071030;28;20033;-53
2022/09/15 10:58:02;;;;;;;4.57;2.20;;;29.70;99.90;;;;;;5071145;28;20166;-54
2022/09/15 11:01:01;;;;;;;4.50;1.80;;;29.90;99.90;;;;;;5070823;28;20033;-53
2022/09/15 11:03:45;;;;;;;3.63;1.85;;;29.80;99.90;;;;;;5070668;28;20045;-53
2022/09/15 11:06:22;;;;;;;6.15;2.88;;;29.70;99.90;;;;;;5070927;28;20593;-52
2022/09/15 11:09:10;;;;;;;5.07;2.65;;;29.80;99.90;;;;;;5070921;28;20032;-53
2022/09/15 11:11:48;;;;;;;6.95;3.03;;;29.80;99.90;;;;;;5070815;28;20032;-52
2022/09/15 11:14:34;;;;;;;5.63;2.40;;;29.60;99.90;;;;;;5070846;28;20059;-53
2022/09/15 11:17:18;;;;;;;7.22;2.85;;;29.80;99.90;;;;;;5071004;28;20029;-52
2022/09/15 11:20:02;;;;;;;5.15;2.78;;;30.00;99.90;;;;;;5070840;28;20520;-53
2022/09/15 11:22:38;;;;;;;2.38;1.80;;;29.70;99.90;;;;;;5070949;28;20030;-53
2022/09/15 11:25:20;;;;;;;7.40;2.90;;;28.70;99.90;;;;;;5071400;28;20036;-52
2022/09/15 11:27:56;;;;;;;4.82;2.45;;;29.10;99.90;;;;;;5136494;27;20066;-53
2022/09/15 11:30:24;;;;;;;7.93;3.20;;;28.50;99.90;;;;;;5136701;27;20026;-52
2022/09/15 11:33:15;;;;;;;6.18;2.90;;;28.60;99.90;;;;;;5138036;27;20058;-53
2022/09/15 11:35:52;;;;;;;6.78;2.90;;;29.20;99.90;;;;;;5137894;27;20412;-53
2022/09/15 11:38:41;;;;;;;7.38;2.90;;;29.80;99.90;;;;;;5137930;27;20035;-55
2022/09/15 11:41:17;;;;;;;6.90;2.80;;;;;;;;;;5137503;27;20030;-55
2022/09/15 11:43:58;;;;;;;8.40;2.85;;;30.50;99.90;;;;;;5146581;27;20022;-54
2022/09/15 11:46:51;;;;;;;6.47;2.97;;;31.00;99.90;;;;;;5155048;27;20031;-54
2022/09/15 11:49:22;;;;;;;6.22;2.50;;;;;;;;;;5141649;27;20538;-54
2022/09/15 11:51:52;;;;;;;5.20;1.98;;;;;;;;;;5125386;27;20138;-52
2022/09/15 11:54:29;;;;;;;8.70;2.65;;;31.90;99.90;;;;;;5142197;27;20027;-53
2022/09/15 11:56:56;;;;;;;4.53;1.88;;;;;;;;;;5151458;27;20067;-52
2022/09/15 11:59:30;;;;;;;7.65;2.45;;;;;;;;;;5158218;27;20033;-55
2022/09/15 12:02:08;;;;;;;5.53;2.50;;;32.50;99.30;;;;;;5157803;27;20029;-54
2022/09/15 12:05:07;;;;;;;5.80;2.10;;;32.30;97.50;;;;;;5157779;27;20420;-54
2022/09/15 12:07:57;;;;;;;6.50;2.20;;;32.10;98.00;;;;;;5052297;28;20113;-54
2022/09/15 12:10:39;;;;;;;5.93;1.95;;;32.70;98.30;;;;;;5053677;28;20055;-53
2022/09/15 12:13:05;;;;;;;6.95;1.58;;;31.70;97.90;;;;;;5047083;28;20462;-54
2022/09/15 12:15:31;;;;;;;4.75;1.58;;;31.90;98.20;;;;;;5048526;28;20088;-54
2022/09/15 12:18:00;;;;;;;9.50;2.00;;;31.70;97.60;;;;;;5050969;28;20052;-54
2022/09/15 12:20:53;;;;;;;7.20;2.88;;;31.60;97.90;;;;;;5053519;28;20033;-53
2022/09/15 12:23:48;;;;;;;13.52;2.55;;;31.70;98.00;;;;;;5047106;28;20157;-54
2022/09/15 12:26:20;;;;;;;5.05;2.17;;;31.60;98.60;;;;;;5052954;28;20139;-52
2022/09/15 12:28:49;;;;;;;8.65;2.25;;;31.60;98.30;;;;;;5041726;28;20066;-53
2022/09/15 12:31:30;;;;;;;8.00;7.30;;;31.70;98.00;;;;;;5046884;28;20041;-50
2022/09/15 12:34:18;;;;;;;5.72;1.90;;;31.80;98.90;;;;;;5035818;28;20078;-53
2022/09/15 12:36:48;;;;;;;9.57;2.03;;;31.60;97.30;;;;;;4992502;28;20549;-56
2022/09/15 12:39:42;;;;;;;7.10;2.67;;;31.60;97.90;;;;;;4987121;28;20082;-58
2022/09/15 12:42:13;;;;;;;10.43;3.05;;;31.50;97.30;;;;;;4991842;28;20034;-59
2022/09/15 12:45:01;;;;;;;6.32;2.70;;;31.40;97.30;;;;;;5005779;28;20522;-57
2022/09/15 12:47:27;;;;;;;6.47;2.05;;;31.30;97.50;;;;;;5050187;28;20045;-58
2022/09/15 12:50:07;;;;;;;5.05;2.47;;;31.20;97.70;;;;;;5032749;28;20045;-58
2022/09/15 12:52:52;;;;;;;5.00;1.90;;;31.10;97.80;;;;;;4990750;28;20047;-56
2022/09/15 12:55:22;;;;;;;7.18;1.88;;;31.00;97.90;;;;;;4990872;28;20035;-60
2022/09/15 12:57:58;;;;;;;5.03;1.90;;;30.90;97.10;;;;;;4982045;28;20030;-57
2022/09/15 13:00:36;;;;;;;4.85;2.20;;;30.90;97.00;;;;;;4983293;28;20042;-55
2022/09/15 13:03:04;;;;;;;6.50;1.70;;;30.90;97.20;;;;;;4935758;28;20100;-56
2022/09/15 13:05:44;;;;;;;6.53;1.80;;;30.90;97.40;;;;;;4974923;28;20038;-60
2022/09/15 13:08:35;;;;;;;5.90;2.03;;;30.90;98.20;;;;;;4979721;28;20031;-58
2022/09/15 13:11:27;;;;;;;7.35;2.75;;;31.00;97.70;;;;;;4952215;28;20042;-57
2022/09/15 13:14:07;;;;;;;5.75;2.60;;;30.70;98.60;;;;;;4933956;29;20071;-60
2022/09/15 13:16:39;;;;;;;7.43;2.17;;;30.30;99.30;;;;;;4952688;29;20065;-58
2022/09/15 13:19:16;;;;;;;8.32;2.65;;;30.00;99.80;;;;;;4952635;29;20078;-59